Time;durP1;ratioP1;P1;durP2;ratioP2;P2;SDS_P1;SDS_P2;PMS_P1;PMS_P2;Temp;Humidity;BMP_temperature;BMP_pressure;BME280_temperature;BME280_humidity;BME280_pressure;Samples;Min_cycle;Max_cycle;Signal;HPM_P1;HPM_P2
2022/06/20 00:01:25;;;;;;;1.00;0.47;;;;;;;;;;4947059;28;88536;-75
2022/06/20 00:03:54;;;;;;;0.80;0.47;;;;;;;;;;4947043;28;88444;-75
2022/06/20 00:06:23;;;;;;;0.53;0.53;;;;;;;;;;4955673;28;88544;-75
2022/06/20 00:08:52;;;;;;;0.80;0.40;;;;;;;;;;4943164;28;89371;-75
2022/06/20 00:11:21;;;;;;;0.40;0.40;;;;;;;;;;4952042;28;88702;-75
2022/06/20 00:13:52;;;;;;;1.03;0.57;;;;;;;;;;4945513;28;88503;-74
2022/06/20 00:16:21;;;;;;;1.60;0.50;;;;;;;;;;4955381;28;90018;-74
2022/06/20 00:18:49;;;;;;;3.07;0.67;;;;;;;;;;4943958;28;88517;-75
2022/06/20 00:21:18;;;;;;;0.73;0.47;;;;;;;;;;4946107;28;88865;-74
2022/06/20 00:23:46;;;;;;;1.27;0.40;;;;;;;;;;4943721;28;88543;-74
2022/06/20 00:26:15;;;;;;;2.17;0.40;;;;;;;;;;4944096;28;90070;-75
2022/06/20 00:28:43;;;;;;;0.40;0.40;;;;;;;;;;4942206;28;90107;-75
2022/06/20 00:31:13;;;;;;;1.40;0.40;;;;;;;;;;4957716;28;88900;-74
2022/06/20 00:33:42;;;;;;;1.70;0.70;;;;;;;;;;4948861;28;88672;-74
2022/06/20 00:36:10;;;;;;;0.50;0.50;;;;;;;;;;4942287;28;90279;-75
2022/06/20 00:38:39;;;;;;;0.40;0.40;;;;;;;;;;4958742;28;89391;-75
2022/06/20 00:41:07;;;;;;;1.20;0.30;;;;;;;;;;4954298;28;88828;-74
2022/06/20 00:43:37;;;;;;;2.10;0.70;;;;;;;;;;4943154;28;90255;-75
2022/06/20 00:46:07;;;;;;;0.63;0.30;;;;;;;;;;4944312;28;90826;-74
2022/06/20 00:48:38;;;;;;;0.20;0.20;;;;;;;;;;4955997;28;89999;-75
2022/06/20 00:51:08;;;;;;;0.53;0.40;;;;;;;;;;4950236;28;88281;-74
2022/06/20 00:53:39;;;;;;;0.50;0.50;;;;;;;;;;4952534;28;89660;-74
2022/06/20 00:56:09;;;;;;;1.30;0.37;;;;;;;;;;4945220;28;89774;-74
2022/06/20 00:58:39;;;;;;;1.87;0.40;;;;;;;;;;4954498;28;90173;-75
2022/06/20 01:01:09;;;;;;;1.30;0.30;;;;;;;;;;4946525;28;89997;-75
2022/06/20 01:03:39;;;;;;;0.80;0.57;;;;;;;;;;4942333;28;88670;-74
2022/06/20 01:06:08;;;;;;;1.03;0.40;;;;;;;;;;4957101;28;90615;-74
2022/06/20 01:08:39;;;;;;;0.40;0.30;;;;;;;;;;4940867;28;89664;-74
2022/06/20 01:11:08;;;;;;;0.50;0.50;;;;;;;;;;4952752;28;88961;-74
2022/06/20 01:13:37;;;;;;;1.20;0.53;;;;;;;;;;4941142;28;88699;-75
2022/06/20 01:16:07;;;;;;;2.17;0.40;;;;;;;;;;4941416;28;90572;-74
2022/06/20 01:18:36;;;;;;;1.60;0.30;;;;;;;;;;4946188;28;91707;-74
2022/06/20 01:21:06;;;;;;;1.13;0.30;;;;;;;;;;4952707;28;88560;-74
2022/06/20 01:23:37;;;;;;;0.40;0.40;;;;;;;;;;4940306;28;88733;-74
2022/06/20 01:26:26;;;;;;;1.73;0.50;;;;;;;;;;4949088;28;89820;-74
2022/06/20 01:29:04;;;;;;;1.83;0.43;;;;;;;;;;4936769;28;88647;-74
2022/06/20 01:31:33;;;;;;;0.60;0.30;;;;;;;;;;4939532;28;88966;-75
2022/06/20 01:34:01;;;;;;;0.90;0.50;;;;;;;;;;4947845;28;88724;-75
2022/06/20 01:39:16;;;;;;;1.23;0.40;;;;;;;;;;4944694;28;93043;-74
2022/06/20 01:44:33;;;;;;;0.37;0.33;;;;;;;;;;4943219;28;88655;-74
2022/06/20 01:47:01;;;;;;;3.50;0.90;;;;;;;;;;4943115;28;90606;-75
2022/06/20 01:49:30;;;;;;;1.47;0.80;;;;;;;;;;4942317;28;88720;-74
2022/06/20 01:52:02;;;;;;;2.27;1.30;;;;;;;;;;4941109;28;88351;-74
2022/06/20 01:54:33;;;;;;;1.20;0.90;;;;;;;;;;4954371;28;88529;-74
2022/06/20 01:57:02;;;;;;;1.20;1.07;;;;;;;;;;4957843;28;89605;-74
2022/06/20 01:59:36;;;;;;;1.40;1.10;;;;;;;;;;4955025;28;89080;-74
2022/06/20 02:02:04;;;;;;;2.00;1.50;;;;;;;;;;4943469;28;89785;-74
2022/06/20 02:04:33;;;;;;;1.60;1.20;;;;;;;;;;4954063;28;88665;-74
2022/06/20 02:07:02;;;;;;;1.60;1.43;;;;;;;;;;4945221;28;88487;-74
2022/06/20 02:09:30;;;;;;;2.97;1.27;;;;;;;;;;4947641;28;89962;-75
2022/06/20 02:11:59;;;;;;;1.80;1.30;;;;;;;;;;4941207;28;88412;-74
2022/06/20 02:14:30;;;;;;;3.27;1.00;;;;;;;;;;4957815;28;88634;-74
2022/06/20 02:17:00;;;;;;;2.53;1.33;;;;;;;;;;4953089;28;89855;-74
2022/06/20 02:19:31;;;;;;;3.50;1.60;;;;;;;;;;4952454;28;89956;-74
2022/06/20 02:22:00;;;;;;;3.30;1.87;;;;;;;;;;4948761;28;88363;-74
2022/06/20 02:24:29;;;;;;;10.30;1.80;;;;;;;;;;4956010;28;88510;-74
2022/06/20 02:27:01;;;;;;;3.70;1.80;;;;;;;;;;4949559;28;93150;-74
2022/06/20 02:29:30;;;;;;;5.93;2.17;;;;;;;;;;4951170;28;89262;-73
2022/06/20 02:32:08;;;;;;;2.90;1.70;;;;;;;;;;4953854;28;88697;-73
2022/06/20 02:34:37;;;;;;;3.63;2.07;;;;;;;;;;4956832;28;88836;-73
2022/06/20 02:37:09;;;;;;;4.13;2.37;;;;;;;;;;4949993;28;94215;-73
2022/06/20 02:39:38;;;;;;;3.70;2.57;;;;;;;;;;4938253;28;89435;-73
2022/06/20 02:42:09;;;;;;;3.07;2.57;;;;;;;;;;4954102;28;89334;-73
2022/06/20 02:44:37;;;;;;;4.87;2.70;;;;;;;;;;4952903;28;88647;-73
2022/06/20 02:47:07;;;;;;;5.03;3.27;;;;;;;;;;4939523;28;89641;-74
2022/06/20 02:49:35;;;;;;;4.47;2.93;;;;;;;;;;4939670;28;91154;-73
2022/06/20 02:52:04;;;;;;;4.60;3.17;;;;;;;;;;4943061;28;90653;-74
2022/06/20 02:54:33;;;;;;;6.67;3.30;;;;;;;;;;4943527;28;88576;-74
2022/06/20 02:57:06;;;;;;;7.47;3.40;;;;;;;;;;4940919;28;90343;-74
2022/06/20 02:59:34;;;;;;;4.90;3.17;;;;;;;;;;4950637;28;92271;-73
2022/06/20 03:02:05;;;;;;;6.63;3.23;;;;;;;;;;4945053;28;91909;-74
2022/06/20 03:04:36;;;;;;;11.97;4.10;;;;;;;;;;4948393;28;88639;-73
2022/06/20 03:07:05;;;;;;;5.97;2.90;;;;;;;;;;4942326;28;88584;-74
2022/06/20 03:09:34;;;;;;;4.87;3.63;;;;;;;;;;4939443;28;89116;-73
2022/06/20 03:12:03;;;;;;;6.27;3.07;;;;;;;;;;4942218;28;88896;-77
2022/06/20 03:14:36;;;;;;;9.07;3.53;;;;;;;;;;4940899;28;88373;-77
2022/06/20 03:17:04;;;;;;;7.10;3.07;;;;;;;;;;4948115;28;89651;-77
2022/06/20 03:19:33;;;;;;;6.97;2.43;;;;;;;;;;4939884;28;92063;-77
2022/06/20 03:22:03;;;;;;;10.03;3.27;;;;;;;;;;4945929;28;88862;-78
2022/06/20 03:24:33;;;;;;;5.87;3.33;;;;;;;;;;4944197;28;88695;-77
2022/06/20 03:27:01;;;;;;;6.37;3.23;;;;;;;;;;4938217;28;89663;-78
2022/06/20 03:29:30;;;;;;;5.17;3.40;;;;;;;;;;4942776;28;90519;-77
2022/06/20 03:31:59;;;;;;;5.37;3.50;;;;;;;;;;4943810;28;89496;-78
2022/06/20 03:34:28;;;;;;;4.00;3.33;;;;;;;;;;4940767;28;88673;-74
2022/06/20 03:37:00;;;;;;;7.23;3.50;;;;;;;;;;4940846;28;89498;-74
2022/06/20 03:39:31;;;;;;;6.90;4.03;;;;;;;;;;4940180;28;89607;-74
2022/06/20 03:41:59;;;;;;;6.63;4.40;;;;;;;;;;4938963;28;89744;-74
2022/06/20 03:44:29;;;;;;;4.87;3.27;;;;;;;;;;4940297;28;88611;-74
2022/06/20 03:46:59;;;;;;;8.83;4.50;;;;;;;;;;4952969;28;89721;-78
2022/06/20 03:49:28;;;;;;;5.37;3.60;;;;;;;;;;4941015;28;88781;-77
2022/06/20 03:51:57;;;;;;;3.67;2.43;;;;;;;;;;4939185;28;88624;-78
2022/06/20 03:54:26;;;;;;;6.53;3.63;;;;;;;;;;4940155;28;88389;-79
2022/06/20 03:56:57;;;;;;;7.83;4.30;;;;;;;;;;4941417;28;89584;-78
2022/06/20 03:59:26;;;;;;;6.77;4.00;;;;;;;;;;4956965;28;88828;-75
2022/06/20 04:01:55;;;;;;;4.80;3.03;;;;;;;;;;4942915;28;90051;-74
2022/06/20 04:04:24;;;;;;;6.67;3.47;;;;;;;;;;4944015;28;88402;-74
2022/06/20 04:06:53;;;;;;;4.17;2.97;;;;;;;;;;4944361;28;88560;-74
2022/06/20 04:12:11;;;;;;;4.97;2.60;;;;;;;;;;4950358;28;88282;-74
2022/06/20 04:14:40;;;;;;;4.87;2.70;;;;;;;;;;4956335;28;88665;-74
2022/06/20 04:19:56;;;;;;;4.83;2.53;;;;;;;;;;4961733;28;91481;-76
2022/06/20 04:22:27;;;;;;;4.87;2.30;;;;;;;;;;4951289;28;90775;-75
2022/06/20 04:24:55;;;;;;;6.53;2.20;;;;;;;;;;4952824;28;88469;-75
2022/06/20 04:27:26;;;;;;;5.77;2.30;;;;;;;;;;4944571;28;92353;-77
2022/06/20 04:29:55;;;;;;;6.60;2.60;;;;;;;;;;4941983;28;89041;-75
2022/06/20 04:32:24;;;;;;;3.63;2.00;;;;;;;;;;4943359;28;88409;-75
2022/06/20 04:34:54;;;;;;;5.60;2.50;;;;;;;;;;4946953;28;88762;-75
2022/06/20 04:37:23;;;;;;;3.17;2.10;;;;;;;;;;4952731;28;92458;-75
2022/06/20 04:39:53;;;;;;;4.03;1.90;;;;;;;;;;4950522;28;90187;-68
2022/06/20 04:42:26;;;;;;;3.13;1.60;;;;;;;;;;4942348;28;88409;-68
2022/06/20 04:44:57;;;;;;;4.73;2.70;;;;;;;;;;4955312;28;88754;-69
2022/06/20 04:47:31;;;;;;;3.73;2.03;;;;;;;;;;4953324;28;91007;-69
2022/06/20 04:50:00;;;;;;;2.10;1.67;;;;;;;;;;4942625;28;90043;-68
2022/06/20 04:52:29;;;;;;;3.00;1.57;;;;;;;;;;4943099;28;88557;-68
2022/06/20 04:54:57;;;;;;;3.07;1.87;;;;;;;;;;4943620;28;88576;-68
2022/06/20 04:57:27;;;;;;;3.23;1.63;;;;;;;;;;4961087;28;90154;-69
2022/06/20 04:59:56;;;;;;;3.50;1.80;;;;;;;;;;4958975;28;92030;-70
2022/06/20 05:02:25;;;;;;;3.77;2.23;;;;;;;;;;4942373;28;88787;-68
2022/06/20 05:04:53;;;;;;;10.00;2.20;;;;;;;;;;4941809;28;89190;-68
2022/06/20 05:07:23;;;;;;;2.63;1.87;;;;;;;;;;4949664;28;91959;-69
2022/06/20 05:09:52;;;;;;;2.73;2.13;;;;;;;;;;4954676;28;89474;-68
2022/06/20 05:12:22;;;;;;;5.37;1.90;;;;;;;;;;4945853;28;91941;-67
2022/06/20 05:14:51;;;;;;;5.43;2.33;;;;;;;;;;4942298;28;88639;-67
2022/06/20 05:17:23;;;;;;;3.27;2.07;;;;;;;;;;4941960;28;90857;-68
2022/06/20 05:19:52;;;;;;;2.70;1.90;;;;;;;;;;4942924;28;90056;-69
2022/06/20 05:22:21;;;;;;;3.60;1.50;;;;;;;;;;4946177;28;89312;-68
2022/06/20 05:24:54;;;;;;;2.93;1.90;;;;;;;;;;4942599;28;88669;-67
2022/06/20 05:27:24;;;;;;;2.57;1.57;;;;;;;;;;4955022;28;91508;-67
2022/06/20 05:29:54;;;;;;;2.17;1.70;;;;;;;;;;4961655;28;91603;-73
2022/06/20 05:32:24;;;;;;;3.47;1.43;;;;;;;;;;4947729;28;88381;-73
2022/06/20 05:34:54;;;;;;;2.90;1.73;;;;;;;;;;4954585;28;88663;-77
2022/06/20 05:37:24;;;;;;;3.17;1.67;;;;;;;;;;4959572;28;92644;-70
2022/06/20 05:39:55;;;;;;;2.53;1.17;;;;;;;;;;4964173;28;89535;-72
2022/06/20 05:42:23;;;;;;;4.07;1.30;;;;;;;;;;4956780;28;88730;-72
2022/06/20 05:44:51;;;;;;;1.43;1.20;;;;;;;;;;4959711;28;88591;-73
2022/06/20 05:47:21;;;;;;;1.70;1.37;;;;;;;;;;4944521;28;91729;-73
2022/06/20 05:49:52;;;;;;;1.20;1.03;;;;;;;;;;4940039;28;89729;-70
2022/06/20 05:52:21;;;;;;;1.60;1.20;;;;;;;;;;4956427;28;88786;-70
2022/06/20 05:54:55;;;;;;;3.57;1.57;;;;;;;;;;4961223;28;88536;-73
2022/06/20 05:57:24;;;;;;;1.57;1.30;;;;;;;;;;4960172;28;89678;-73
2022/06/20 05:59:54;;;;;;;0.83;0.77;;;;;;;;;;4959016;28;88951;-73
2022/06/20 06:02:23;;;;;;;3.57;1.30;;;;;;;;;;4956260;28;88415;-71
2022/06/20 06:04:56;;;;;;;2.10;1.53;;;;;;;;;;4958225;28;88945;-72
2022/06/20 06:07:25;;;;;;;0.97;0.90;;;;;;;;;;4961005;28;89682;-72
2022/06/20 06:09:55;;;;;;;3.17;0.70;;;;;;;;;;4960287;28;93330;-72
2022/06/20 06:12:25;;;;;;;2.57;0.80;;;;;;;;;;4959262;28;90032;-72
2022/06/20 06:14:54;;;;;;;1.90;0.90;;;;;;;;;;4960344;28;88916;-72
2022/06/20 06:17:23;;;;;;;1.83;0.67;;;;;;;;;;4959716;28;90369;-71
2022/06/20 06:20:13;;;;;;;0.67;0.60;;;;;;;;;;4944030;28;89346;-72
2022/06/20 06:22:43;;;;;;;1.17;0.70;;;;;;;;;;4938808;28;88322;-72
2022/06/20 06:25:17;;;;;;;0.60;0.60;;;;;;;;;;4943162;28;88445;-71
2022/06/20 06:27:45;;;;;;;1.23;0.83;;;;;;;;;;4955675;28;90702;-71
2022/06/20 06:30:15;;;;;;;0.60;0.60;;;;;;;;;;4955605;28;90078;-71
2022/06/20 06:32:44;;;;;;;2.00;0.53;;;;;;;;;;4941548;28;88600;-72
2022/06/20 06:35:16;;;;;;;1.07;0.97;;;;;;;;;;4956929;28;88470;-72
2022/06/20 06:37:47;;;;;;;2.07;0.63;;;;;;;;;;4957204;28;90809;-72
2022/06/20 06:40:16;;;;;;;0.87;0.53;;;;;;;;;;4952176;28;91204;-72
2022/06/20 06:42:44;;;;;;;0.77;0.60;;;;;;;;;;4940008;28;88863;-71
2022/06/20 06:45:13;;;;;;;1.97;0.80;;;;;;;;;;4956916;28;88531;-72
2022/06/20 06:47:42;;;;;;;0.80;0.80;;;;;;;;;;4956904;28;88522;-70
2022/06/20 06:50:17;;;;;;;1.50;0.60;;;;;;;;;;4942053;28;89965;-70
2022/06/20 06:52:46;;;;;;;1.60;0.70;;;;;;;;;;4957979;28;89258;-70
2022/06/20 06:55:19;;;;;;;2.30;0.80;;;;;;;;;;4959172;28;88633;-70
2022/06/20 06:57:49;;;;;;;0.57;0.40;;;;;;;;;;4957695;28;89564;-69
2022/06/20 07:00:19;;;;;;;1.23;0.73;;;;;;;;;;4942133;28;88401;-70
2022/06/20 07:02:51;;;;;;;0.77;0.50;;;;;;;;;;4940336;28;91525;-70
2022/06/20 07:05:23;;;;;;;2.23;0.70;;;;;;;;;;4941537;28;88541;-70
2022/06/20 07:07:52;;;;;;;0.70;0.57;;;;;;;;;;4940317;28;88397;-70
2022/06/20 07:10:21;;;;;;;2.00;0.60;;;;;;;;;;4940064;28;89339;-70
2022/06/20 07:12:51;;;;;;;0.47;0.47;;;;;;;;;;4940599;28;88766;-70
2022/06/20 07:15:21;;;;;;;3.13;0.93;;;;;;;;;;4940767;28;88389;-70
2022/06/20 07:17:50;;;;;;;2.03;0.80;;;;;;;;;;4940493;28;90843;-70
2022/06/20 07:20:19;;;;;;;0.47;0.47;;;;;;;;;;4940500;28;90104;-70
2022/06/20 07:22:49;;;;;;;2.87;1.00;;;;;;;;;;4940350;28;88270;-70
2022/06/20 07:25:18;;;;;;;1.07;0.47;;;;;;;;;;4940211;28;88452;-70
2022/06/20 07:27:48;;;;;;;4.70;0.97;;;;;;;;;;4943693;28;89961;-69
2022/06/20 07:30:16;;;;;;;0.83;0.60;;;;;;;;;;4951030;28;89500;-69
2022/06/20 07:32:46;;;;;;;0.93;0.50;;;;;;;;;;4953183;28;88948;-71
2022/06/20 07:35:15;;;;;;;0.60;0.60;;;;;;;;;;4953198;28;89648;-70
2022/06/20 07:37:45;;;;;;;2.50;0.70;;;;;;;;;;4947821;28;92249;-69
2022/06/20 07:40:18;;;;;;;0.67;0.57;;;;;;;;;;4958193;28;88976;-69
2022/06/20 07:42:48;;;;;;;4.40;1.00;;;;;;;;;;4963149;28;90689;-69
2022/06/20 07:45:19;;;;;;;3.80;1.07;;;;;;;;;;4963436;28;88485;-69
2022/06/20 07:47:48;;;;;;;2.03;0.73;;;;;;;;;;4963165;28;91035;-69
2022/06/20 07:50:16;;;;;;;4.97;0.87;;;;;;;;;;4962892;28;90393;-69
2022/06/20 07:52:47;;;;;;;0.50;0.33;;;;;;;;;;4963135;28;89755;-69
2022/06/20 07:55:17;;;;;;;1.83;0.87;;;;;;;;;;4963065;28;88481;-69
2022/06/20 07:57:46;;;;;;;0.73;0.50;;;;;;;;;;4962267;28;89486;-68
2022/06/20 08:00:15;;;;;;;4.17;0.50;;;;;;;;;;4958132;28;89075;-69
2022/06/20 08:02:44;;;;;;;1.37;0.70;;;;;;;;;;4944095;28;88304;-68
2022/06/20 08:05:13;;;;;;;3.30;1.07;;;;;;;;;;4943762;28;88469;-68
2022/06/20 08:07:42;;;;;;;1.23;0.90;;;;;;;;;;4943417;28;90603;-68
2022/06/20 08:10:13;;;;;;;1.00;0.40;;;;;;;;;;4942578;28;89122;-69
2022/06/20 08:12:55;;;;;;;0.57;0.50;;;;;;;;;;4943027;28;88765;-69
2022/06/20 08:15:24;;;;;;;0.87;0.77;;;;;;;;;;4946263;28;88529;-69
2022/06/20 08:17:53;;;;;;;1.37;0.67;;;;;;;;;;4942596;28;89558;-69
2022/06/20 08:20:21;;;;;;;1.63;0.90;;;;;;;;;;4942781;28;90469;-68
2022/06/20 08:22:52;;;;;;;3.77;0.97;;;;;;;;;;4944034;28;89074;-69
2022/06/20 08:25:20;;;;;;;0.83;0.70;;;;;;;;;;4967835;28;88717;-69
2022/06/20 08:27:50;;;;;;;0.93;0.70;;;;;;;;;;4961729;28;90710;-68
2022/06/20 08:30:20;;;;;;;2.93;0.87;;;;;;;;;;4962371;28;90089;-68
2022/06/20 08:32:51;;;;;;;4.30;1.17;;;;;;;;;;4954961;28;88762;-68
2022/06/20 08:35:21;;;;;;;3.80;0.70;;;;;;;;;;4942627;28;88433;-69
2022/06/20 08:37:52;;;;;;;0.87;0.60;;;;;;;;;;4948067;28;90688;-70
2022/06/20 08:40:34;;;;;;;1.23;0.80;;;;;;;;;;4961783;28;90512;-69
2022/06/20 08:43:06;;;;;;;1.27;0.50;;;;;;;;;;4953631;28;89677;-69
2022/06/20 08:46:21;;;;;;;0.70;0.70;;;;;;;;;;4941264;28;88656;-69
2022/06/20 08:49:04;;;;;;;2.43;0.50;;;;;;;;;;4927240;28;90035;-69
2022/06/20 08:52:06;;;;;;;0.83;0.60;;;;;;;;;;4961837;28;90151;-68
2022/06/20 08:54:37;;;;;;;0.57;0.57;;;;;;;;;;4941662;28;91752;-69
2022/06/20 08:57:06;;;;;;;1.37;0.50;;;;;;;;;;4943016;28;88512;-69
2022/06/20 08:59:38;;;;;;;1.27;0.77;;;;;;;;;;4942088;28;90592;-69
2022/06/20 09:02:08;;;;;;;2.10;0.80;;;;;;;;;;4941952;28;90379;-70
2022/06/20 09:04:41;;;;;;;1.17;0.77;;;;;;;;;;4944346;28;89277;-69
2022/06/20 09:07:15;;;;;;;0.83;0.57;;;;;;;;;;4941402;28;88492;-69
2022/06/20 09:09:48;;;;;;;1.50;0.77;;;;;;;;;;4942012;28;90672;-69
2022/06/20 09:12:21;;;;;;;3.10;0.80;;;;;;;;;;4947471;28;91073;-69
2022/06/20 09:14:54;;;;;;;2.50;0.70;;;;;;;;;;4961092;28;88331;-70
2022/06/20 09:17:24;;;;;;;0.77;0.50;;;;;;;;;;4960285;28;88462;-69
2022/06/20 09:20:02;;;;;;;0.70;0.70;;;;;;;;;;4947985;28;90683;-68
2022/06/20 09:22:42;;;;;;;0.90;0.83;;;;;;;;;;4942065;28;90275;-68
2022/06/20 09:25:14;;;;;;;1.57;0.70;;;;;;;;;;4941923;28;90155;-69
2022/06/20 09:27:46;;;;;;;0.53;0.50;;;;;;;;;;4942023;28;88334;-68
2022/06/20 09:30:15;;;;;;;1.70;0.50;;;;;;;;;;4957108;28;92471;-70
2022/06/20 09:33:12;;;;;;;1.43;0.67;;;;;;;;;;4961247;28;88386;-69
2022/06/20 09:35:50;;;;;;;0.43;0.43;;;;;;;;;;4959620;28;88524;-68
2022/06/20 09:38:29;;;;;;;0.50;0.50;;;;;;;;;;4975059;28;88646;-69
2022/06/20 09:40:58;;;;;;;1.27;0.63;;;;;;;;;;4980621;28;90655;-69
2022/06/20 09:43:35;;;;;;;0.43;0.43;;;;;;;;;;4980484;28;90893;-68
2022/06/20 09:46:07;;;;;;;1.13;0.50;;;;;;;;;;4976743;28;89891;-69
2022/06/20 09:48:41;;;;;;;1.70;0.47;;;;;;;;;;4964317;28;88553;-68
2022/06/20 09:51:11;;;;;;;0.83;0.50;;;;;;;;;;4941101;28;92139;-68
2022/06/20 09:56:35;;;;;;;2.67;0.67;;;;;;;;;;5060725;27;88224;-68
2022/06/20 09:59:07;;;;;;;3.57;0.90;;;;;;;;;;5058223;27;88507;-68
2022/06/20 10:01:36;;;;;;;0.40;0.40;;;;;;;;;;5052586;27;88514;-68
2022/06/20 10:04:09;;;;;;;1.60;0.80;;;;;;;;;;5026131;28;90959;-69
2022/06/20 10:06:44;;;;;;;0.43;0.40;;;;;;;;;;5031510;27;89914;-68
2022/06/20 10:09:15;;;;;;;1.40;0.47;;;;;;;;;;5036850;28;88327;-68
2022/06/20 10:11:46;;;;;;;0.70;0.50;;;;;;;;;;5036615;28;88525;-68
2022/06/20 10:14:16;;;;;;;2.43;0.80;;;;;;;;;;5036047;28;92146;-68
2022/06/20 10:16:46;;;;;;;3.33;0.97;;;;;;;;;;5036872;27;89923;-68
2022/06/20 10:19:16;;;;;;;11.27;0.70;;;;;;;;;;5033866;27;88387;-68
2022/06/20 10:21:45;;;;;;;0.80;0.60;;;;;;;;;;5037654;28;88429;-68
2022/06/20 10:24:27;;;;;;;3.13;0.80;;;;;;;;;;5038525;27;90779;-68
2022/06/20 10:27:13;;;;;;;0.97;0.60;;;;;;;;;;5055704;27;89989;-68
2022/06/20 10:29:46;;;;;;;0.70;0.70;;;;;;;;;;5041424;27;88490;-68
2022/06/20 10:32:17;;;;;;;1.03;0.70;;;;;;;;;;5060309;27;88542;-68
2022/06/20 10:34:46;;;;;;;1.70;0.47;;;;;;;;;;5057811;27;90542;-69
2022/06/20 10:37:20;;;;;;;0.63;0.53;;;;;;;;;;5053928;27;90266;-68
2022/06/20 10:39:51;;;;;;;0.53;0.47;;;;;;;;;;5057471;27;88345;-68
2022/06/20 10:42:25;;;;;;;0.97;0.50;;;;;;;;;;5058307;27;88487;-68
2022/06/20 10:45:00;;;;;;;1.43;0.70;;;;;;;;;;5057406;27;90684;-68
2022/06/20 10:47:30;;;;;;;1.07;0.60;;;;;;;;;;5027398;27;89919;-65
2022/06/20 10:50:04;;;;;;;1.17;0.73;;;;;;;;;;5016838;28;88373;-65
2022/06/20 10:52:37;;;;;;;1.03;0.60;;;;;;;;;;5017057;28;88397;-64
2022/06/20 10:55:09;;;;;;;1.03;0.60;;;;;;;;;;5015613;27;90684;-65
2022/06/20 10:57:41;;;;;;;1.77;0.67;;;;;;;;;;5017803;28;89691;-65
2022/06/20 11:00:11;;;;;;;1.13;0.97;;;;;;;;;;5036190;28;88326;-65
2022/06/20 11:02:45;;;;;;;1.43;0.80;;;;;;;;;;5037450;28;88461;-65
2022/06/20 11:05:16;;;;;;;2.20;0.67;;;;;;;;;;5030437;27;90287;-69
2022/06/20 11:07:46;;;;;;;0.70;0.60;;;;;;;;;;5015524;27;89831;-63
2022/06/20 11:10:21;;;;;;;1.30;0.50;;;;;;;;;;5019373;28;88409;-63
2022/06/20 11:12:51;;;;;;;0.80;0.60;;;;;;;;;;5024061;28;88461;-71
2022/06/20 11:15:23;;;;;;;2.40;1.00;;;;;;;;;;5023019;28;90603;-72
2022/06/20 11:17:53;;;;;;;1.17;0.53;;;;;;;;;;5023499;28;88726;-73
2022/06/20 11:20:23;;;;;;;0.77;0.73;;;;;;;;;;5020682;27;88602;-72
2022/06/20 11:22:52;;;;;;;0.47;0.43;;;;;;;;;;5030703;27;88558;-71
2022/06/20 11:25:24;;;;;;;0.97;0.87;;;;;;;;;;5002576;28;90819;-70
2022/06/20 11:28:06;;;;;;;3.30;0.77;;;;;;;;;;5021900;28;90066;-70
2022/06/20 11:30:37;;;;;;;2.47;0.63;;;;;;;;;;5017032;28;88516;-70
2022/06/20 11:33:15;;;;;;;1.37;0.77;;;;;;;;;;5015496;28;88627;-71
2022/06/20 11:35:49;;;;;;;1.07;0.70;;;;;;;;;;5002621;28;90637;-71
2022/06/20 11:38:28;;;;;;;1.80;0.70;;;;;;;;;;5007373;28;90108;-72
2022/06/20 11:40:58;;;;;;;0.60;0.60;;;;;;;;;;5003033;28;88326;-71
2022/06/20 11:43:34;;;;;;;1.33;0.70;;;;;;;;;;5002285;28;88509;-70
2022/06/20 11:46:08;;;;;;;1.50;0.80;;;;;;;;;;5005665;28;90679;-70
2022/06/20 11:48:39;;;;;;;0.60;0.60;;;;;;;;;;5009337;28;90038;-71
2022/06/20 11:51:09;;;;;;;0.73;0.70;;;;;;;;;;5022499;28;88609;-71
2022/06/20 11:53:43;;;;;;;4.50;0.97;;;;;;;;;;5023161;28;88638;-70
2022/06/20 11:56:14;;;;;;;2.00;0.43;;;;;;;;;;5022231;28;90670;-72
2022/06/20 11:59:04;;;;;;;2.27;0.97;;;;;;;;;;5022742;28;91137;-71
2022/06/20 12:01:42;;;;;;;1.37;1.00;;;;;;;;;;5028445;28;88450;-73
2022/06/20 12:04:12;;;;;;;5.17;0.73;;;;;;;;;;5040681;27;88483;-72
2022/06/20 12:06:42;;;;;;;0.90;0.90;;;;;;;;;;5040603;27;90587;-72
2022/06/20 12:09:12;;;;;;;1.93;0.73;;;;;;;;;;5042360;28;90027;-71
2022/06/20 12:11:42;;;;;;;3.70;0.97;;;;;;;;;;5025725;28;88357;-72
2022/06/20 12:14:15;;;;;;;0.97;0.60;;;;;;;;;;5015656;28;88491;-72
2022/06/20 12:16:50;;;;;;;0.40;0.40;;;;;;;;;;5001823;28;90760;-72
2022/06/20 12:25:03;;;;;;;0.47;0.47;;;;;;;;;;5019687;28;88414;-72
2022/06/20 12:27:32;;;;;;;2.97;0.60;;;;;;;;;;5022080;28;90606;-64
2022/06/20 12:30:00;;;;;;;1.80;0.60;;;;;;;;;;5021502;28;90178;-64
2022/06/20 12:32:34;;;;;;;1.37;0.67;;;;;;;;;;5002360;28;88449;-64
2022/06/20 12:35:05;;;;;;;1.53;0.80;;;;;;;;;;5020068;28;88671;-64
2022/06/20 12:37:34;;;;;;;0.57;0.57;;;;;;;;;;5030429;28;93311;-64
2022/06/20 12:40:04;;;;;;;2.23;0.53;;;;;;;;;;5041797;27;89818;-64
2022/06/20 12:42:35;;;;;;;2.60;0.70;;;;;;;;;;5034484;28;88871;-64
2022/06/20 12:45:08;;;;;;;2.70;0.70;;;;;;;;;;5021776;28;88456;-64
2022/06/20 12:47:44;;;;;;;1.60;0.80;;;;;;;;;;5022252;28;90678;-64
2022/06/20 12:50:16;;;;;;;1.60;0.60;;;;;;;;;;5021668;28;90083;-64
2022/06/20 12:52:45;;;;;;;2.47;0.80;;;;;;;;;;5010341;28;88480;-64
2022/06/20 12:55:18;;;;;;;1.07;0.73;;;;;;;;;;5035299;27;88497;-64
2022/06/20 12:58:25;;;;;;;1.30;0.63;;;;;;;;;;5041532;27;91251;-64
2022/06/20 13:00:54;;;;;;;1.10;0.70;;;;;;;;;;5041460;27;90242;-64
2022/06/20 13:03:33;;;;;;;3.60;0.80;;;;;;;;;;5042063;27;88497;-64
2022/06/20 13:06:45;;;;;;;1.10;1.00;;;;;;;;;;5042265;27;88462;-64
2022/06/20 13:09:21;;;;;;;1.43;0.63;;;;;;;;;;5025948;27;89635;-64
2022/06/20 13:11:52;;;;;;;1.50;0.70;;;;;;;;;;5039183;28;89934;-64
2022/06/20 13:14:25;;;;;;;4.23;0.83;;;;;;;;;;5025781;28;88662;-72
2022/06/20 13:16:56;;;;;;;3.70;1.00;;;;;;;;;;5021778;28;88542;-71
2022/06/20 13:19:35;;;;;;;2.00;0.77;;;;;;;;;;5022665;28;90603;-73
2022/06/20 13:22:06;;;;;;;2.93;1.00;;;;;;;;;;5024216;28;89875;-71
2022/06/20 13:24:40;;;;;;;1.80;0.90;;;;;;;;;;5003515;28;88314;-72
2022/06/20 13:27:11;;;;;;;1.97;0.67;;;;;;;;;;5011419;28;88524;-71
2022/06/20 13:29:42;;;;;;;1.40;0.90;;;;;;;;;;5001151;28;93387;-72
2022/06/20 13:32:14;;;;;;;2.60;0.97;;;;;;;;;;5003681;28;90222;-71
2022/06/20 13:34:48;;;;;;;0.60;0.60;;;;;;;;;;5017085;28;88404;-71
2022/06/20 13:37:23;;;;;;;0.93;0.73;;;;;;;;;;5007144;28;88157;-72
2022/06/20 13:39:52;;;;;;;2.10;0.70;;;;;;;;;;5021993;27;90946;-71
2022/06/20 13:42:22;;;;;;;0.43;0.40;;;;;;;;;;5020784;28;89941;-71
2022/06/20 13:44:51;;;;;;;1.50;0.80;;;;;;;;;;5020827;28;88387;-71
2022/06/20 13:47:23;;;;;;;0.77;0.50;;;;;;;;;;5021210;28;88606;-71
2022/06/20 13:49:59;;;;;;;4.77;0.87;;;;;;;;;;5017160;28;90126;-72
2022/06/20 13:52:28;;;;;;;0.77;0.63;;;;;;;;;;5011449;28;92649;-71
2022/06/20 13:54:58;;;;;;;0.80;0.53;;;;;;;;;;5005826;27;88415;-73
2022/06/20 13:57:27;;;;;;;1.73;0.53;;;;;;;;;;5025114;28;88569;-72
2022/06/20 13:59:57;;;;;;;0.70;0.60;;;;;;;;;;5009712;28;94050;-72
2022/06/20 14:02:27;;;;;;;1.50;0.40;;;;;;;;;;5014090;28;89074;-72
2022/06/20 14:04:57;;;;;;;0.40;0.40;;;;;;;;;;5010575;28;88657;-72
2022/06/20 14:07:28;;;;;;;0.50;0.50;;;;;;;;;;5018081;28;88420;-71
2022/06/20 14:09:56;;;;;;;1.30;0.77;;;;;;;;;;5011334;28;90636;-71
2022/06/20 14:12:25;;;;;;;3.00;0.90;;;;;;;;;;5006550;28;90104;-71
2022/06/20 14:14:55;;;;;;;1.90;0.60;;;;;;;;;;5011335;28;88440;-71
2022/06/20 14:17:23;;;;;;;0.67;0.47;;;;;;;;;;5000154;28;88568;-72
2022/06/20 14:19:53;;;;;;;0.77;0.60;;;;;;;;;;5016845;28;90512;-71
2022/06/20 14:22:23;;;;;;;1.07;0.70;;;;;;;;;;5019455;28;90003;-70
2022/06/20 14:24:52;;;;;;;1.93;0.50;;;;;;;;;;5019021;28;88261;-73
2022/06/20 14:27:21;;;;;;;3.30;0.80;;;;;;;;;;5007515;28;88440;-73
2022/06/20 14:29:50;;;;;;;0.73;0.50;;;;;;;;;;5007486;28;90653;-73
2022/06/20 14:32:19;;;;;;;0.40;0.40;;;;;;;;;;5011690;28;89955;-73
2022/06/20 14:37:33;;;;;;;1.23;0.50;;;;;;;;;;5018773;28;88655;-73
2022/06/20 14:40:01;;;;;;;1.43;0.50;;;;;;;;;;5019846;28;90606;-73
2022/06/20 14:42:31;;;;;;;1.50;0.63;;;;;;;;;;5021566;27;90017;-73
2022/06/20 14:45:01;;;;;;;0.60;0.50;;;;;;;;;;5018150;28;88380;-73
2022/06/20 14:47:32;;;;;;;0.80;0.60;;;;;;;;;;5002998;28;88280;-73
2022/06/20 14:50:02;;;;;;;0.30;0.30;;;;;;;;;;5019678;28;90916;-73
2022/06/20 14:52:33;;;;;;;1.60;0.53;;;;;;;;;;5003015;28;88728;-72
2022/06/20 14:55:02;;;;;;;0.50;0.50;;;;;;;;;;5020485;28;88494;-73
2022/06/20 14:57:32;;;;;;;0.87;0.57;;;;;;;;;;5022157;28;89504;-73
2022/06/20 15:00:03;;;;;;;1.33;0.60;;;;;;;;;;5020284;28;90632;-73
2022/06/20 15:02:33;;;;;;;1.60;0.77;;;;;;;;;;5014384;28;89451;-73
2022/06/20 15:05:03;;;;;;;2.40;0.60;;;;;;;;;;5006491;28;88372;-73
2022/06/20 15:07:34;;;;;;;0.50;0.50;;;;;;;;;;5007260;28;88547;-73
2022/06/20 15:10:04;;;;;;;0.50;0.50;;;;;;;;;;5011321;28;90874;-73
2022/06/20 15:12:34;;;;;;;1.80;0.70;;;;;;;;;;5021324;28;89978;-71
2022/06/20 15:15:03;;;;;;;1.20;0.60;;;;;;;;;;5024791;28;88583;-71
2022/06/20 15:17:34;;;;;;;0.43;0.43;;;;;;;;;;5032468;27;88527;-71
2022/06/20 15:20:04;;;;;;;0.43;0.43;;;;;;;;;;5037013;28;90597;-72
2022/06/20 15:22:35;;;;;;;10.80;4.40;;;;;;;;;;5027309;28;89949;-72
2022/06/20 15:25:09;;;;;;;19.23;9.00;;;;;;;;;;5004874;28;88433;-70
2022/06/20 15:27:39;;;;;;;12.37;4.27;;;;;;;;;;5023330;28;89809;-68
2022/06/20 15:30:10;;;;;;;11.20;3.53;;;;;;;;;;5024618;28;90580;-66